sensor_id;sensor_type;location;lat;lon;timestamp;pressure;altitude;pressure_sealevel;temperature;humidity
14383;BME280;7275;50.328;8.720;2022-09-21T00:01:06;100614.38;;;14.90;41.52
14383;BME280;7275;50.328;8.720;2022-09-21T00:03:34;100610.91;;;14.88;41.36
14383;BME280;7275;50.328;8.720;2022-09-21T00:06:03;100615.50;;;14.84;41.33
14383;BME280;7275;50.328;8.720;2022-09-21T00:08:30;100609.47;;;14.81;41.28
14383;BME280;7275;50.328;8.720;2022-09-21T00:11:00;100613.03;;;14.80;41.45
14383;BME280;7275;50.328;8.720;2022-09-21T00:13:30;100615.75;;;14.78;41.37
14383;BME280;7275;50.328;8.720;2022-09-21T00:15:58;100616.63;;;14.79;41.53
14383;BME280;7275;50.328;8.720;2022-09-21T00:18:26;100609.63;;;14.76;41.45
14383;BME280;7275;50.328;8.720;2022-09-21T00:20:54;100615.94;;;14.74;41.48
14383;BME280;7275;50.328;8.720;2022-09-21T00:23:21;100607.97;;;14.74;41.57
14383;BME280;7275;50.328;8.720;2022-09-21T00:25:49;100618.59;;;14.74;41.55
14383;BME280;7275;50.328;8.720;2022-09-21T00:28:18;100623.13;;;14.72;41.67
14383;BME280;7275;50.328;8.720;2022-09-21T00:30:45;100621.38;;;14.71;41.34
14383;BME280;7275;50.328;8.720;2022-09-21T00:33:16;100625.88;;;14.69;41.40
14383;BME280;7275;50.328;8.720;2022-09-21T00:35:44;100622.38;;;14.68;41.27
14383;BME280;7275;50.328;8.720;2022-09-21T00:38:11;100618.91;;;14.66;41.39
14383;BME280;7275;50.328;8.720;2022-09-21T00:40:39;100627.94;;;14.62;41.50
14383;BME280;7275;50.328;8.720;2022-09-21T00:43:11;100617.41;;;14.59;41.50
14383;BME280;7275;50.328;8.720;2022-09-21T00:45:40;100620.25;;;14.55;41.69
14383;BME280;7275;50.328;8.720;2022-09-21T00:48:09;100627.50;;;14.51;41.65
14383;BME280;7275;50.328;8.720;2022-09-21T00:50:41;100624.09;;;14.48;41.71
14383;BME280;7275;50.328;8.720;2022-09-21T00:53:10;100619.75;;;14.45;41.74
14383;BME280;7275;50.328;8.720;2022-09-21T00:55:40;100627.81;;;14.42;41.80
14383;BME280;7275;50.328;8.720;2022-09-21T00:58:14;100626.16;;;14.39;41.87
14383;BME280;7275;50.328;8.720;2022-09-21T01:00:44;100617.41;;;14.36;42.01
14383;BME280;7275;50.328;8.720;2022-09-21T01:03:12;100622.00;;;14.32;41.97
14383;BME280;7275;50.328;8.720;2022-09-21T01:05:39;100622.91;;;14.31;41.84
14383;BME280;7275;50.328;8.720;2022-09-21T01:08:08;100622.03;;;14.31;42.11
14383;BME280;7275;50.328;8.720;2022-09-21T01:10:50;100626.53;;;14.29;41.99
14383;BME280;7275;50.328;8.720;2022-09-21T01:13:32;100616.91;;;14.25;42.12
14383;BME280;7275;50.328;8.720;2022-09-21T01:16:10;100625.03;;;14.22;41.94
14383;BME280;7275;50.328;8.720;2022-09-21T01:18:43;100623.28;;;14.21;41.88
14383;BME280;7275;50.328;8.720;2022-09-21T01:21:20;100630.34;;;14.22;41.81
14383;BME280;7275;50.328;8.720;2022-09-21T01:27:07;100626.94;;;14.18;41.70
14383;BME280;7275;50.328;8.720;2022-09-21T01:29:47;100629.63;;;14.17;41.75
14383;BME280;7275;50.328;8.720;2022-09-21T01:32:19;100627.03;;;14.15;41.72
14383;BME280;7275;50.328;8.720;2022-09-21T01:34:51;100627.22;;;14.11;41.65
14383;BME280;7275;50.328;8.720;2022-09-21T01:37:23;100637.03;;;14.09;41.69
14383;BME280;7275;50.328;8.720;2022-09-21T01:39:55;100638.94;;;14.05;41.69
14383;BME280;7275;50.328;8.720;2022-09-21T01:42:26;100637.31;;;14.01;41.69
14383;BME280;7275;50.328;8.720;2022-09-21T01:44:59;100645.41;;;13.98;41.70
14383;BME280;7275;50.328;8.720;2022-09-21T01:47:29;100645.53;;;13.95;41.65
14383;BME280;7275;50.328;8.720;2022-09-21T01:49:58;100636.78;;;13.92;41.71
14383;BME280;7275;50.328;8.720;2022-09-21T01:52:32;100647.47;;;13.90;41.78
14383;BME280;7275;50.328;8.720;2022-09-21T01:55:05;100641.34;;;13.88;41.68
14383;BME280;7275;50.328;8.720;2022-09-21T01:57:37;100647.63;;;13.86;41.72
14383;BME280;7275;50.328;8.720;2022-09-21T02:00:08;100644.16;;;13.84;41.55
14383;BME280;7275;50.328;8.720;2022-09-21T02:02:40;100646.06;;;13.80;41.88
14383;BME280;7275;50.328;8.720;2022-09-21T02:05:12;100644.44;;;13.76;41.73
14383;BME280;7275;50.328;8.720;2022-09-21T02:07:41;100640.09;;;13.74;42.10
14383;BME280;7275;50.328;8.720;2022-09-21T02:10:14;100640.25;;;13.69;42.04
14383;BME280;7275;50.328;8.720;2022-09-21T02:12:43;100645.69;;;13.66;41.80
14383;BME280;7275;50.328;8.720;2022-09-21T02:15:12;100639.59;;;13.62;41.80
14383;BME280;7275;50.328;8.720;2022-09-21T02:17:45;100640.59;;;13.60;41.97
14383;BME280;7275;50.328;8.720;2022-09-21T02:20:19;100638.03;;;13.57;41.90
14383;BME280;7275;50.328;8.720;2022-09-21T02:22:58;100635.44;;;13.54;42.08
14383;BME280;7275;50.328;8.720;2022-09-21T02:25:38;100646.13;;;13.52;42.15
14383;BME280;7275;50.328;8.720;2022-09-21T02:28:11;100634.69;;;13.50;42.22
14383;BME280;7275;50.328;8.720;2022-09-21T02:30:48;100633.00;;;13.48;42.10
14383;BME280;7275;50.328;8.720;2022-09-21T02:33:25;100633.13;;;13.45;42.30
14383;BME280;7275;50.328;8.720;2022-09-21T02:35:57;100634.09;;;13.42;42.36
14383;BME280;7275;50.328;8.720;2022-09-21T02:38:34;100633.34;;;13.39;42.14
14383;BME280;7275;50.328;8.720;2022-09-21T02:41:07;100621.94;;;13.35;42.21
14383;BME280;7275;50.328;8.720;2022-09-21T02:43:40;100627.22;;;13.37;42.13
14383;BME280;7275;50.328;8.720;2022-09-21T02:46:13;100619.34;;;13.34;42.20
14383;BME280;7275;50.328;8.720;2022-09-21T02:48:45;100622.97;;;13.31;42.03
14383;BME280;7275;50.328;8.720;2022-09-21T02:51:18;100628.34;;;13.30;42.08
14383;BME280;7275;50.328;8.720;2022-09-21T02:53:47;100630.22;;;13.26;42.06
14383;BME280;7275;50.328;8.720;2022-09-21T02:56:16;100627.59;;;13.25;42.19
14383;BME280;7275;50.328;8.720;2022-09-21T02:58:47;100625.97;;;13.21;42.30
14383;BME280;7275;50.328;8.720;2022-09-21T03:01:18;100630.38;;;13.22;42.17
14383;BME280;7275;50.328;8.720;2022-09-21T03:03:46;100627.72;;;13.22;42.24
14383;BME280;7275;50.328;8.720;2022-09-21T03:06:13;100627.72;;;13.22;42.23
14383;BME280;7275;50.328;8.720;2022-09-21T03:08:41;100630.38;;;13.22;42.46
14383;BME280;7275;50.328;8.720;2022-09-21T03:11:08;100633.94;;;13.21;42.46
14383;BME280;7275;50.328;8.720;2022-09-21T03:13:36;100620.78;;;13.18;42.39
14383;BME280;7275;50.328;8.720;2022-09-21T03:16:05;100627.88;;;13.17;42.68
14383;BME280;7275;50.328;8.720;2022-09-21T03:18:34;100625.28;;;13.16;42.77
14383;BME280;7275;50.328;8.720;2022-09-21T03:21:02;100631.44;;;13.16;42.43
14383;BME280;7275;50.328;8.720;2022-09-21T03:23:30;100631.44;;;13.16;42.53
14383;BME280;7275;50.328;8.720;2022-09-21T03:25:57;100643.84;;;13.16;42.70
14383;BME280;7275;50.328;8.720;2022-09-21T03:28:25;100639.50;;;13.13;42.65
14383;BME280;7275;50.328;8.720;2022-09-21T03:30:52;100645.72;;;13.12;42.87
14383;BME280;7275;50.328;8.720;2022-09-21T03:33:20;100645.78;;;13.11;42.78
14383;BME280;7275;50.328;8.720;2022-09-21T03:35:50;100645.91;;;13.08;42.98
14383;BME280;7275;50.328;8.720;2022-09-21T03:38:17;100644.09;;;13.08;43.04
14383;BME280;7275;50.328;8.720;2022-09-21T03:40:45;100643.28;;;13.06;43.22
14383;BME280;7275;50.328;8.720;2022-09-21T03:43:14;100647.75;;;13.04;43.15
14383;BME280;7275;50.328;8.720;2022-09-21T03:45:42;100653.06;;;13.04;43.28
14383;BME280;7275;50.328;8.720;2022-09-21T03:48:10;100646.88;;;13.04;43.16
14383;BME280;7275;50.328;8.720;2022-09-21T03:50:40;100654.84;;;13.04;43.21
14383;BME280;7275;50.328;8.720;2022-09-21T03:53:09;100651.31;;;13.03;43.20
14383;BME280;7275;50.328;8.720;2022-09-21T03:55:37;100649.53;;;13.04;42.92
14383;BME280;7275;50.328;8.720;2022-09-21T03:58:05;100653.97;;;13.03;43.22
14383;BME280;7275;50.328;8.720;2022-09-21T04:00:33;100653.03;;;13.06;43.17
14383;BME280;7275;50.328;8.720;2022-09-21T04:03:00;100654.84;;;13.04;42.96
14383;BME280;7275;50.328;8.720;2022-09-21T04:05:28;100657.53;;;13.02;42.99
14383;BME280;7275;50.328;8.720;2022-09-21T04:07:55;100660.31;;;12.99;42.88
14383;BME280;7275;50.328;8.720;2022-09-21T04:10:24;100660.31;;;12.98;42.91
14383;BME280;7275;50.328;8.720;2022-09-21T04:12:59;100664.81;;;12.96;43.05
14383;BME280;7275;50.328;8.720;2022-09-21T04:15:28;100665.81;;;12.92;42.86
14383;BME280;7275;50.328;8.720;2022-09-21T04:17:56;100660.63;;;12.89;43.02
14383;BME280;7275;50.328;8.720;2022-09-21T04:20:24;100664.19;;;12.88;43.06
14383;BME280;7275;50.328;8.720;2022-09-21T04:22:52;100668.69;;;12.85;43.17
14383;BME280;7275;50.328;8.720;2022-09-21T04:25:19;100665.13;;;12.87;43.09
14383;BME280;7275;50.328;8.720;2022-09-21T04:27:48;100671.31;;;12.85;43.24
14383;BME280;7275;50.328;8.720;2022-09-21T04:30:16;100668.72;;;12.84;43.11
14383;BME280;7275;50.328;8.720;2022-09-21T04:32:44;100669.63;;;12.83;43.17
14383;BME280;7275;50.328;8.720;2022-09-21T04:35:12;100671.44;;;12.82;43.38
14383;BME280;7275;50.328;8.720;2022-09-21T04:37:39;100672.28;;;12.83;43.37
14383;BME280;7275;50.328;8.720;2022-09-21T04:40:08;100675.88;;;12.82;43.16
14383;BME280;7275;50.328;8.720;2022-09-21T04:42:35;100677.72;;;12.80;43.17
14383;BME280;7275;50.328;8.720;2022-09-21T04:45:05;100676.94;;;12.76;43.17
14383;BME280;7275;50.328;8.720;2022-09-21T04:47:33;100680.56;;;12.74;43.13
14383;BME280;7275;50.328;8.720;2022-09-21T04:50:00;100675.25;;;12.72;43.27
14383;BME280;7275;50.328;8.720;2022-09-21T04:52:27;100679.81;;;12.69;43.15
14383;BME280;7275;50.328;8.720;2022-09-21T04:54:55;100675.50;;;12.65;43.28
14383;BME280;7275;50.328;8.720;2022-09-21T04:57:22;100681.78;;;12.62;43.59
14383;BME280;7275;50.328;8.720;2022-09-21T04:59:50;100682.66;;;12.63;43.52
14383;BME280;7275;50.328;8.720;2022-09-21T05:02:18;100680.94;;;12.62;43.82
14383;BME280;7275;50.328;8.720;2022-09-21T05:04:46;100679.13;;;12.62;43.72
14383;BME280;7275;50.328;8.720;2022-09-21T05:07:16;100691.56;;;12.60;43.46
14383;BME280;7275;50.328;8.720;2022-09-21T05:09:44;100695.09;;;12.61;43.51
14383;BME280;7275;50.328;8.720;2022-09-21T05:12:29;100696.03;;;12.58;43.70
14383;BME280;7275;50.328;8.720;2022-09-21T05:14:56;100705.78;;;12.58;43.46
14383;BME280;7275;50.328;8.720;2022-09-21T05:17:25;100699.56;;;12.59;43.78
14383;BME280;7275;50.328;8.720;2022-09-21T05:19:53;100701.31;;;12.60;43.52
14383;BME280;7275;50.328;8.720;2022-09-21T05:22:21;100703.00;;;12.62;43.79
14383;BME280;7275;50.328;8.720;2022-09-21T05:24:48;100706.56;;;12.61;43.46
14383;BME280;7275;50.328;8.720;2022-09-21T05:27:16;100705.66;;;12.62;43.68
14383;BME280;7275;50.328;8.720;2022-09-21T05:29:44;100712.66;;;12.65;43.92
14383;BME280;7275;50.328;8.720;2022-09-21T05:32:16;100709.91;;;12.68;43.93
14383;BME280;7275;50.328;8.720;2022-09-21T05:34:52;100707.22;;;12.69;44.28
14383;BME280;7275;50.328;8.720;2022-09-21T05:37:37;100715.03;;;12.74;44.10
14383;BME280;7275;50.328;8.720;2022-09-21T05:40:09;100708.72;;;12.78;44.06
14383;BME280;7275;50.328;8.720;2022-09-21T05:42:37;100702.41;;;12.82;44.29
14383;BME280;7275;50.328;8.720;2022-09-21T05:45:06;100714.53;;;12.91;44.16
14383;BME280;7275;50.328;8.720;2022-09-21T05:47:38;100724.91;;;12.98;44.29
14383;BME280;7275;50.328;8.720;2022-09-21T05:50:19;100711.44;;;13.06;44.38
14383;BME280;7275;50.328;8.720;2022-09-21T05:52:56;100708.47;;;13.15;44.44
14383;BME280;7275;50.328;8.720;2022-09-21T05:55:32;100716.09;;;13.25;44.64
14383;BME280;7275;50.328;8.720;2022-09-21T05:58:09;100716.69;;;13.35;44.59
14383;BME280;7275;50.328;8.720;2022-09-21T06:00:44;100719.91;;;13.44;44.83
14383;BME280;7275;50.328;8.720;2022-09-21T06:03:26;100724.00;;;13.54;45.08
14383;BME280;7275;50.328;8.720;2022-09-21T06:05:56;100723.75;;;13.62;45.17
14383;BME280;7275;50.328;8.720;2022-09-21T06:08:24;100719.91;;;13.71;45.37
14383;BME280;7275;50.328;8.720;2022-09-21T06:10:53;100717.75;;;13.82;45.49
14383;BME280;7275;50.328;8.720;2022-09-21T06:13:21;100727.94;;;13.95;45.71
14383;BME280;7275;50.328;8.720;2022-09-21T06:15:48;100726.53;;;14.10;45.62
14383;BME280;7275;50.328;8.720;2022-09-21T06:18:16;100721.59;;;14.24;45.79
14383;BME280;7275;50.328;8.720;2022-09-21T06:20:44;100725.50;;;14.38;45.95
14383;BME280;7275;50.328;8.720;2022-09-21T06:23:13;100727.63;;;14.54;45.97
14383;BME280;7275;50.328;8.720;2022-09-21T06:25:40;100728.84;;;14.68;46.00
14383;BME280;7275;50.328;8.720;2022-09-21T06:28:09;100730.97;;;14.82;46.12
14383;BME280;7275;50.328;8.720;2022-09-21T06:30:38;100734.91;;;14.95;46.04
14383;BME280;7275;50.328;8.720;2022-09-21T06:33:08;100734.44;;;15.07;46.06
14383;BME280;7275;50.328;8.720;2022-09-21T06:35:36;100737.41;;;15.21;46.20
14383;BME280;7275;50.328;8.720;2022-09-21T06:38:06;100739.53;;;15.35;46.09
14383;BME280;7275;50.328;8.720;2022-09-21T06:40:35;100730.16;;;15.48;45.96
14383;BME280;7275;50.328;8.720;2022-09-21T06:43:03;100734.00;;;15.62;46.01
14383;BME280;7275;50.328;8.720;2022-09-21T06:45:31;100729.06;;;15.73;46.10
14383;BME280;7275;50.328;8.720;2022-09-21T06:47:59;100740.88;;;15.88;45.98
14383;BME280;7275;50.328;8.720;2022-09-21T06:50:27;100741.31;;;15.99;45.82
14383;BME280;7275;50.328;8.720;2022-09-21T06:52:54;100739.88;;;16.11;45.97
14383;BME280;7275;50.328;8.720;2022-09-21T06:55:22;100735.75;;;16.24;45.86
14383;BME280;7275;50.328;8.720;2022-09-21T06:57:51;100742.38;;;16.35;45.82
14383;BME280;7275;50.328;8.720;2022-09-21T07:00:18;100743.63;;;16.47;45.65
14383;BME280;7275;50.328;8.720;2022-09-21T07:02:46;100744.91;;;16.58;45.96
14383;BME280;7275;50.328;8.720;2022-09-21T07:05:13;100746.25;;;16.68;45.75
14383;BME280;7275;50.328;8.720;2022-09-21T07:07:40;100750.13;;;16.80;45.64
14383;BME280;7275;50.328;8.720;2022-09-21T07:10:08;100748.56;;;16.95;45.56
14383;BME280;7275;50.328;8.720;2022-09-21T07:12:42;100743.59;;;17.06;45.33
14383;BME280;7275;50.328;8.720;2022-09-21T07:15:11;100750.22;;;17.16;45.55
14383;BME280;7275;50.328;8.720;2022-09-21T07:17:38;100750.66;;;17.25;45.30
14383;BME280;7275;50.328;8.720;2022-09-21T07:20:07;100751.00;;;17.36;45.39
14383;BME280;7275;50.328;8.720;2022-09-21T07:22:36;100745.22;;;17.45;45.12
14383;BME280;7275;50.328;8.720;2022-09-21T07:25:04;100754.47;;;17.57;45.14
14383;BME280;7275;50.328;8.720;2022-09-21T07:27:33;100747.81;;;17.66;45.13
14383;BME280;7275;50.328;8.720;2022-09-21T07:30:00;100753.59;;;17.75;44.98
14383;BME280;7275;50.328;8.720;2022-09-21T07:32:29;100752.22;;;17.84;44.92
14383;BME280;7275;50.328;8.720;2022-09-21T07:34:57;100750.91;;;17.92;44.81
14383;BME280;7275;50.328;8.720;2022-09-21T07:37:25;100749.56;;;18.01;44.93
14383;BME280;7275;50.328;8.720;2022-09-21T07:39:53;100755.34;;;18.10;44.81
14383;BME280;7275;50.328;8.720;2022-09-21T07:42:21;100747.69;;;18.20;44.64
14383;BME280;7275;50.328;8.720;2022-09-21T07:44:51;100747.22;;;18.29;44.68
14383;BME280;7275;50.328;8.720;2022-09-21T07:47:30;100749.41;;;18.38;44.62
14383;BME280;7275;50.328;8.720;2022-09-21T07:49:57;100742.72;;;18.47;44.48
14383;BME280;7275;50.328;8.720;2022-09-21T07:52:26;100749.50;;;18.54;44.28
14383;BME280;7275;50.328;8.720;2022-09-21T07:54:53;100743.81;;;18.60;44.20
14383;BME280;7275;50.328;8.720;2022-09-21T07:57:21;100741.69;;;18.66;44.35
14383;BME280;7275;50.328;8.720;2022-09-21T08:00:07;100742.13;;;18.74;44.44
14383;BME280;7275;50.328;8.720;2022-09-21T08:02:36;100738.88;;;18.85;44.55
14383;BME280;7275;50.328;8.720;2022-09-21T08:05:08;100749.88;;;18.96;44.25
14383;BME280;7275;50.328;8.720;2022-09-21T08:07:35;100742.97;;;19.07;44.36
14383;BME280;7275;50.328;8.720;2022-09-21T08:10:03;100743.91;;;19.22;44.20
14383;BME280;7275;50.328;8.720;2022-09-21T08:12:30;100737.88;;;19.34;44.04
14383;BME280;7275;50.328;8.720;2022-09-21T08:14:58;100746.19;;;19.45;43.91
14383;BME280;7275;50.328;8.720;2022-09-21T08:17:25;100746.63;;;19.53;43.99
14383;BME280;7275;50.328;8.720;2022-09-21T08:19:54;100743.22;;;19.65;43.88
14383;BME280;7275;50.328;8.720;2022-09-21T08:22:21;100738.88;;;19.78;44.11
14383;BME280;7275;50.328;8.720;2022-09-21T08:24:50;100747.00;;;19.92;43.77
14383;BME280;7275;50.328;8.720;2022-09-21T08:27:17;100747.91;;;20.07;43.72
14383;BME280;7275;50.328;8.720;2022-09-21T08:29:45;100749.00;;;20.19;43.51
14383;BME280;7275;50.328;8.720;2022-09-21T08:32:13;100745.78;;;20.28;43.49
14383;BME280;7275;50.328;8.720;2022-09-21T08:35:02;100747.53;;;20.43;43.59
14383;BME280;7275;50.328;8.720;2022-09-21T08:37:30;100743.91;;;20.58;43.34
14383;BME280;7275;50.328;8.720;2022-09-21T08:39:58;100741.63;;;20.80;43.07
14383;BME280;7275;50.328;8.720;2022-09-21T08:42:37;100744.09;;;21.39;42.28
14383;BME280;7275;50.328;8.720;2022-09-21T08:45:11;100739.56;;;22.33;41.28
14383;BME280;7275;50.328;8.720;2022-09-21T08:47:41;100737.25;;;23.27;40.06
14383;BME280;7275;50.328;8.720;2022-09-21T08:50:28;100730.13;;;24.44;39.45
14383;BME280;7275;50.328;8.720;2022-09-21T08:53:01;100722.75;;;25.57;38.35
14383;BME280;7275;50.328;8.720;2022-09-21T08:55:30;100726.50;;;26.70;37.23
14383;BME280;7275;50.328;8.720;2022-09-21T08:57:58;100722.75;;;27.81;36.18
14383;BME280;7275;50.328;8.720;2022-09-21T09:00:27;100723.78;;;28.66;35.38
14383;BME280;7275;50.328;8.720;2022-09-21T09:03:15;100716.13;;;29.43;35.40
14383;BME280;7275;50.328;8.720;2022-09-21T09:05:51;100722.13;;;30.27;34.58
14383;BME280;7275;50.328;8.720;2022-09-21T09:11:43;100716.19;;;32.00;33.22
14383;BME280;7275;50.328;8.720;2022-09-21T09:14:28;100714.59;;;32.78;32.18
14383;BME280;7275;50.328;8.720;2022-09-21T09:17:18;100706.28;;;33.57;31.50
14383;BME280;7275;50.328;8.720;2022-09-21T09:19:52;100710.44;;;34.06;29.99
14383;BME280;7275;50.328;8.720;2022-09-21T09:22:28;100711.56;;;34.34;29.70
14383;BME280;7275;50.328;8.720;2022-09-21T09:24:59;100716.13;;;34.79;28.91
14383;BME280;7275;50.328;8.720;2022-09-21T09:27:32;100709.81;;;35.08;28.83
14383;BME280;7275;50.328;8.720;2022-09-21T09:30:04;100702.19;;;35.39;28.09
14383;BME280;7275;50.328;8.720;2022-09-21T09:32:37;100710.19;;;35.70;28.06
14383;BME280;7275;50.328;8.720;2022-09-21T09:35:16;100710.84;;;36.07;27.69
14383;BME280;7275;50.328;8.720;2022-09-21T09:37:50;100697.97;;;36.57;26.92
14383;BME280;7275;50.328;8.720;2022-09-21T09:40:30;100706.81;;;37.14;26.37
14383;BME280;7275;50.328;8.720;2022-09-21T09:43:06;100703.25;;;37.61;25.65
14383;BME280;7275;50.328;8.720;2022-09-21T09:45:46;100694.84;;;37.82;25.11
14383;BME280;7275;50.328;8.720;2022-09-21T09:48:30;100696.75;;;38.01;25.28
14383;BME280;7275;50.328;8.720;2022-09-21T09:51:01;100699.75;;;38.13;24.31
14383;BME280;7275;50.328;8.720;2022-09-21T09:53:30;100701.69;;;38.19;23.94
14383;BME280;7275;50.328;8.720;2022-09-21T09:55:59;100696.38;;;38.37;23.59
14383;BME280;7275;50.328;8.720;2022-09-21T09:58:36;100693.19;;;38.60;23.45
14383;BME280;7275;50.328;8.720;2022-09-21T10:01:05;100694.22;;;38.98;23.71
14383;BME280;7275;50.328;8.720;2022-09-21T10:03:33;100692.78;;;39.46;23.10
14383;BME280;7275;50.328;8.720;2022-09-21T10:06:01;100690.91;;;39.84;22.62
14383;BME280;7275;50.328;8.720;2022-09-21T10:08:39;100688.38;;;40.08;22.50
14383;BME280;7275;50.328;8.720;2022-09-21T10:11:09;100692.78;;;40.22;21.75
14383;BME280;7275;50.328;8.720;2022-09-21T10:13:38;100687.25;;;40.46;21.43
14383;BME280;7275;50.328;8.720;2022-09-21T10:16:12;100683.53;;;40.77;21.68
14383;BME280;7275;50.328;8.720;2022-09-21T10:18:45;100683.50;;;41.02;20.61
14383;BME280;7275;50.328;8.720;2022-09-21T10:21:19;100674.28;;;41.26;20.75
14383;BME280;7275;50.328;8.720;2022-09-21T10:23:50;100668.25;;;41.29;20.54
14383;BME280;7275;50.328;8.720;2022-09-21T10:26:20;100664.50;;;41.53;19.96
14383;BME280;7275;50.328;8.720;2022-09-21T10:28:55;100667.97;;;41.67;20.13
14383;BME280;7275;50.328;8.720;2022-09-21T10:31:24;100663.25;;;41.67;19.23
14383;BME280;7275;50.328;8.720;2022-09-21T10:33:54;100667.66;;;41.57;19.50
14383;BME280;7275;50.328;8.720;2022-09-21T10:36:33;100665.56;;;41.52;19.66
14383;BME280;7275;50.328;8.720;2022-09-21T10:39:16;100669.91;;;41.48;19.51
14383;BME280;7275;50.328;8.720;2022-09-21T10:41:48;100663.41;;;41.24;18.98
14383;BME280;7275;50.328;8.720;2022-09-21T10:44:17;100663.78;;;41.28;19.52
14383;BME280;7275;50.328;8.720;2022-09-21T10:46:46;100656.41;;;41.52;18.80
14383;BME280;7275;50.328;8.720;2022-09-21T10:49:20;100655.59;;;41.81;18.71
14383;BME280;7275;50.328;8.720;2022-09-21T10:51:50;100657.16;;;41.88;18.47
14383;BME280;7275;50.328;8.720;2022-09-21T10:54:23;100653.63;;;42.11;18.23
14383;BME280;7275;50.328;8.720;2022-09-21T10:56:53;100646.41;;;42.45;18.37
14383;BME280;7275;50.328;8.720;2022-09-21T10:59:25;100652.56;;;42.81;17.95
14383;BME280;7275;50.328;8.720;2022-09-21T11:01:55;100653.41;;;43.05;17.43
14383;BME280;7275;50.328;8.720;2022-09-21T11:04:28;100650.19;;;43.36;17.45
14383;BME280;7275;50.328;8.720;2022-09-21T11:07:03;100653.59;;;43.55;17.33
14383;BME280;7275;50.328;8.720;2022-09-21T11:09:38;100652.66;;;43.78;17.22
14383;BME280;7275;50.328;8.720;2022-09-21T11:12:16;100661.84;;;44.06;17.15
14383;BME280;7275;50.328;8.720;2022-09-21T11:14:52;100656.19;;;44.01;16.67
14383;BME280;7275;50.328;8.720;2022-09-21T11:17:30;100651.09;;;43.98;16.25
14383;BME280;7275;50.328;8.720;2022-09-21T11:20:07;100651.56;;;44.23;16.18
14383;BME280;7275;50.328;8.720;2022-09-21T11:22:42;100655.19;;;44.24;16.07
14383;BME280;7275;50.328;8.720;2022-09-21T11:25:24;100646.25;;;44.05;15.89
14383;BME280;7275;50.328;8.720;2022-09-21T11:28:02;100643.13;;;44.02;16.33
14383;BME280;7275;50.328;8.720;2022-09-21T11:30:45;100642.06;;;43.91;15.91
14383;BME280;7275;50.328;8.720;2022-09-21T11:33:29;100647.25;;;44.16;15.68
14383;BME280;7275;50.328;8.720;2022-09-21T11:36:07;100643.16;;;44.40;15.49
14383;BME280;7275;50.328;8.720;2022-09-21T11:38:49;100637.44;;;44.47;15.56
14383;BME280;7275;50.328;8.720;2022-09-21T11:41:29;100636.56;;;44.63;15.41
14383;BME280;7275;50.328;8.720;2022-09-21T11:44:13;100642.41;;;44.61;14.95
14383;BME280;7275;50.328;8.720;2022-09-21T11:46:52;100629.97;;;44.35;15.01
14383;BME280;7275;50.328;8.720;2022-09-21T11:49:41;100629.50;;;44.22;15.16
14383;BME280;7275;50.328;8.720;2022-09-21T11:52:25;100625.25;;;44.19;15.02
14383;BME280;7275;50.328;8.720;2022-09-21T11:55:14;100615.66;;;44.10;14.63
14383;BME280;7275;50.328;8.720;2022-09-21T11:57:48;100624.41;;;44.02;14.37
14383;BME280;7275;50.328;8.720;2022-09-21T12:00:21;100621.34;;;43.87;14.49
14383;BME280;7275;50.328;8.720;2022-09-21T12:06:09;100617.81;;;44.58;14.01
14383;BME280;7275;50.328;8.720;2022-09-21T12:09:17;100612.63;;;44.83;14.08
14383;BME280;7275;50.328;8.720;2022-09-21T12:11:53;100612.03;;;44.65;13.43
14383;BME280;7275;50.328;8.720;2022-09-21T12:14:31;100605.09;;;44.67;13.75
14383;BME280;7275;50.328;8.720;2022-09-21T12:17:15;100602.03;;;44.85;13.45
14383;BME280;7275;50.328;8.720;2022-09-21T12:19:50;100609.75;;;45.00;13.34
14383;BME280;7275;50.328;8.720;2022-09-21T12:22:25;100607.09;;;44.88;13.24
14383;BME280;7275;50.328;8.720;2022-09-21T12:24:57;100601.38;;;45.00;13.03
14383;BME280;7275;50.328;8.720;2022-09-21T12:27:31;100597.16;;;45.19;13.24
14383;BME280;7275;50.328;8.720;2022-09-21T12:30:09;100593.75;;;45.39;13.16
14383;BME280;7275;50.328;8.720;2022-09-21T12:32:45;100597.34;;;45.61;12.85
14383;BME280;7275;50.328;8.720;2022-09-21T12:35:24;100589.78;;;45.88;13.08
14383;BME280;7275;50.328;8.720;2022-09-21T12:37:57;100584.78;;;46.27;12.49
14383;BME280;7275;50.328;8.720;2022-09-21T12:40:32;100586.69;;;46.58;12.13
14383;BME280;7275;50.328;8.720;2022-09-21T12:43:07;100580.81;;;46.59;11.93
14383;BME280;7275;50.328;8.720;2022-09-21T12:45:41;100579.50;;;46.67;12.42
14383;BME280;7275;50.328;8.720;2022-09-21T12:48:18;100583.53;;;46.44;11.84
14383;BME280;7275;50.328;8.720;2022-09-21T12:50:52;100583.75;;;46.01;12.56
14383;BME280;7275;50.328;8.720;2022-09-21T12:53:23;100580.09;;;45.96;12.36
14383;BME280;7275;50.328;8.720;2022-09-21T12:56:02;100575.66;;;46.05;12.27
14383;BME280;7275;50.328;8.720;2022-09-21T12:58:47;100569.03;;;45.84;11.70
14383;BME280;7275;50.328;8.720;2022-09-21T13:01:27;100572.03;;;45.46;12.22
14383;BME280;7275;50.328;8.720;2022-09-21T13:04:03;100558.31;;;45.44;12.26
14383;BME280;7275;50.328;8.720;2022-09-21T13:06:53;100562.13;;;45.60;12.45
14383;BME280;7275;50.328;8.720;2022-09-21T13:09:28;100563.63;;;45.72;11.83
14383;BME280;7275;50.328;8.720;2022-09-21T13:11:59;100559.91;;;44.70;11.90
14383;BME280;7275;50.328;8.720;2022-09-21T13:14:32;100557.91;;;44.11;12.49
14383;BME280;7275;50.328;8.720;2022-09-21T13:17:04;100551.81;;;44.14;12.44
14383;BME280;7275;50.328;8.720;2022-09-21T13:19:33;100555.94;;;44.45;12.44
14383;BME280;7275;50.328;8.720;2022-09-21T13:22:12;100553.94;;;44.62;12.48
14383;BME280;7275;50.328;8.720;2022-09-21T13:24:42;100551.69;;;44.42;11.90
14383;BME280;7275;50.328;8.720;2022-09-21T13:27:10;100549.63;;;43.83;12.32
14383;BME280;7275;50.328;8.720;2022-09-21T13:29:39;100546.56;;;42.71;12.56
14383;BME280;7275;50.328;8.720;2022-09-21T13:32:22;100548.13;;;41.33;12.77
14383;BME280;7275;50.328;8.720;2022-09-21T13:34:50;100544.81;;;40.16;13.89